createdAt,value
2023-07-27T00:00:53.169Z,330.00
2023-07-27T00:01:53.165Z,329.00
2023-07-27T00:02:53.340Z,329.00
2023-07-27T00:03:53.331Z,327.00
2023-07-27T00:04:53.367Z,330.00
2023-07-27T00:05:53.384Z,332.00
2023-07-27T00:06:53.448Z,335.00
2023-07-27T00:07:53.475Z,334.00
2023-07-27T00:08:53.536Z,333.00
2023-07-27T00:09:53.612Z,330.00
2023-07-27T00:10:53.655Z,329.00
2023-07-27T00:11:53.704Z,327.00
2023-07-27T00:12:53.781Z,328.00
2023-07-27T00:13:53.842Z,330.00
2023-07-27T00:14:53.879Z,330.00
2023-07-27T00:15:53.928Z,334.00
2023-07-27T00:16:53.985Z,333.00
2023-07-27T00:17:54.046Z,330.00
2023-07-27T00:18:54.079Z,332.00
2023-07-27T00:19:54.164Z,332.00
2023-07-27T00:20:54.219Z,333.00
2023-07-27T00:21:54.245Z,334.00
2023-07-27T00:22:54.314Z,334.00
2023-07-27T00:23:54.433Z,334.00
2023-07-27T00:24:54.415Z,337.00
2023-07-27T00:25:54.418Z,338.00
2023-07-27T00:26:54.443Z,337.00
2023-07-27T00:27:54.534Z,337.00
2023-07-27T00:28:54.527Z,340.00
2023-07-27T00:29:54.611Z,340.00
2023-07-27T00:30:54.709Z,339.00
2023-07-27T00:31:54.654Z,337.00
2023-07-27T00:32:54.751Z,338.00
2023-07-27T00:33:54.775Z,337.00
2023-07-27T00:34:54.788Z,336.00
2023-07-27T00:35:54.818Z,336.00
2023-07-27T00:36:54.884Z,337.00
2023-07-27T00:37:54.900Z,338.00
2023-07-27T00:38:54.970Z,339.00
2023-07-27T00:39:55.045Z,341.00
2023-07-27T00:40:55.143Z,343.00
2023-07-27T00:41:55.102Z,343.00
2023-07-27T00:42:55.148Z,341.00
2023-07-27T00:43:55.188Z,340.00
2023-07-27T00:44:55.278Z,341.00
2023-07-27T00:45:55.310Z,340.00
2023-07-27T00:46:55.361Z,341.00
2023-07-27T00:47:55.428Z,340.00
2023-07-27T00:48:55.435Z,336.00
2023-07-27T00:49:55.500Z,337.00
2023-07-27T00:50:55.506Z,336.00
2023-07-27T00:51:55.581Z,334.00
2023-07-27T00:52:55.602Z,333.00
2023-07-27T00:53:55.647Z,334.00
2023-07-27T00:54:55.692Z,335.00
2023-07-27T00:55:55.735Z,338.00
2023-07-27T00:56:55.777Z,341.00
2023-07-27T00:57:55.793Z,340.00
2023-07-27T01:00:11.541Z,344.00
2023-07-27T01:01:11.516Z,344.00
2023-07-27T01:02:11.520Z,342.00
2023-07-27T01:03:11.598Z,341.00
2023-07-27T01:04:11.499Z,342.00
2023-07-27T01:05:11.503Z,343.00
2023-07-27T01:06:11.492Z,341.00
2023-07-27T01:07:11.471Z,339.00
2023-07-27T01:08:11.478Z,338.00
2023-07-27T01:09:11.468Z,338.00
2023-07-27T01:10:11.501Z,338.00
2023-07-27T01:11:11.444Z,340.00
2023-07-27T01:12:11.457Z,341.00
2023-07-27T01:13:11.439Z,342.00
2023-07-27T01:14:11.435Z,340.00
2023-07-27T01:15:11.473Z,341.00
2023-07-27T01:16:11.476Z,342.00
2023-07-27T01:17:11.413Z,341.00
2023-07-27T01:18:11.407Z,340.00
2023-07-27T01:19:11.408Z,341.00
2023-07-27T01:20:11.443Z,340.00
2023-07-27T01:21:11.359Z,341.00
2023-07-27T01:22:11.409Z,340.00
2023-07-27T01:23:11.401Z,342.00
2023-07-27T01:24:11.392Z,341.00
2023-07-27T01:25:11.363Z,342.00
2023-07-27T01:26:11.355Z,341.00
2023-07-27T01:27:11.371Z,343.00
2023-07-27T01:28:11.345Z,343.00
2023-07-27T01:29:11.327Z,343.00
2023-07-27T01:30:11.298Z,342.00
2023-07-27T01:31:11.299Z,343.00
2023-07-27T01:32:11.296Z,346.00
2023-07-27T01:33:11.328Z,347.00
2023-07-27T01:34:11.302Z,346.00
2023-07-27T01:35:11.270Z,345.00
2023-07-27T01:36:11.280Z,344.00
2023-07-27T01:37:11.274Z,347.00
2023-07-27T01:38:11.269Z,347.00
2023-07-27T01:39:11.256Z,347.00
2023-07-27T01:40:11.425Z,345.00
2023-07-27T01:41:11.228Z,347.00
2023-07-27T01:42:11.243Z,348.00
2023-07-27T01:43:11.238Z,348.00
2023-07-27T01:44:11.243Z,347.00
2023-07-27T01:45:13.208Z,346.00
2023-07-27T01:46:11.226Z,346.00
2023-07-27T01:47:11.232Z,346.00
2023-07-27T01:48:11.186Z,347.00
2023-07-27T01:49:11.180Z,347.00
2023-07-27T01:50:11.185Z,348.00
2023-07-27T01:51:11.142Z,350.00
2023-07-27T01:52:11.158Z,350.00
2023-07-27T01:53:11.144Z,349.00
2023-07-27T01:54:11.169Z,350.00
2023-07-27T01:55:11.184Z,352.00
2023-07-27T01:56:11.186Z,352.00
2023-07-27T01:57:11.192Z,352.00
2023-07-27T01:58:11.256Z,352.00
2023-07-27T01:59:11.252Z,351.00
2023-07-27T02:00:11.220Z,349.00
2023-07-27T02:01:11.283Z,348.00
2023-07-27T02:02:11.253Z,348.00
2023-07-27T02:03:11.240Z,348.00
2023-07-27T02:04:11.250Z,350.00
2023-07-27T02:05:11.272Z,348.00
2023-07-27T02:06:11.238Z,350.00
2023-07-27T02:07:11.246Z,349.00
2023-07-27T02:08:11.232Z,348.00
2023-07-27T02:09:11.245Z,348.00
2023-07-27T02:10:11.300Z,348.00
2023-07-27T02:11:11.242Z,350.00
2023-07-27T02:12:11.312Z,350.00
2023-07-27T02:13:11.257Z,350.00
2023-07-27T02:14:11.301Z,348.00
2023-07-27T02:15:11.306Z,347.00
2023-07-27T02:16:11.303Z,347.00
2023-07-27T02:17:11.232Z,349.00
2023-07-27T02:18:11.282Z,349.00
2023-07-27T02:19:11.300Z,348.00
2023-07-27T02:20:11.278Z,347.00
2023-07-27T02:21:11.256Z,346.00
2023-07-27T02:22:11.235Z,347.00
2023-07-27T02:23:11.261Z,345.00
2023-07-27T02:24:11.271Z,346.00
2023-07-27T02:25:11.294Z,345.00
2023-07-27T02:26:11.264Z,347.00
2023-07-27T02:27:11.272Z,349.00
2023-07-27T02:28:11.391Z,348.00
2023-07-27T02:29:11.280Z,350.00
2023-07-27T02:30:11.276Z,350.00
2023-07-27T02:31:11.366Z,349.00
2023-07-27T02:32:11.358Z,348.00
2023-07-27T02:33:11.284Z,348.00
2023-07-27T02:34:11.281Z,348.00
2023-07-27T02:35:11.271Z,347.00
2023-07-27T02:36:11.316Z,346.00
2023-07-27T02:37:11.316Z,345.00
2023-07-27T02:38:11.274Z,346.00
2023-07-27T02:39:11.289Z,345.00
2023-07-27T02:40:11.272Z,344.00
2023-07-27T02:41:11.272Z,342.00
2023-07-27T02:42:11.283Z,344.00
2023-07-27T02:43:11.258Z,348.00
2023-07-27T02:44:11.278Z,350.00
2023-07-27T02:45:11.318Z,352.00
2023-07-27T02:46:11.400Z,350.00
2023-07-27T02:47:11.256Z,350.00
2023-07-27T02:48:11.266Z,350.00
2023-07-27T02:49:11.277Z,349.00
2023-07-27T02:50:11.284Z,347.00
2023-07-27T02:51:11.318Z,348.00
2023-07-27T02:52:11.274Z,349.00
2023-07-27T02:53:11.312Z,350.00
2023-07-27T02:54:11.265Z,349.00
2023-07-27T02:55:11.342Z,351.00
2023-07-27T02:56:11.301Z,351.00
2023-07-27T02:57:11.276Z,350.00
2023-07-27T02:58:11.293Z,350.00
2023-07-27T02:59:11.258Z,353.00
2023-07-27T03:00:11.284Z,353.00
2023-07-27T03:01:11.312Z,350.00
2023-07-27T03:02:11.297Z,350.00
2023-07-27T03:03:11.325Z,347.00
2023-07-27T03:04:11.282Z,345.00
2023-07-27T03:05:11.265Z,344.00
2023-07-27T03:06:11.288Z,345.00
2023-07-27T03:07:11.271Z,345.00
2023-07-27T03:08:11.282Z,347.00
2023-07-27T03:09:11.252Z,349.00
2023-07-27T03:10:11.272Z,350.00
2023-07-27T03:11:11.286Z,353.00
2023-07-27T03:12:11.274Z,353.00
2023-07-27T03:13:11.274Z,353.00
2023-07-27T03:14:11.270Z,355.00
2023-07-27T03:15:11.281Z,357.00
2023-07-27T03:16:11.301Z,357.00
2023-07-27T03:17:11.327Z,353.00
2023-07-27T03:18:11.262Z,350.00
2023-07-27T03:19:11.282Z,349.00
2023-07-27T03:20:11.256Z,349.00
2023-07-27T03:21:11.269Z,351.00
2023-07-27T03:22:11.253Z,351.00
2023-07-27T03:23:11.300Z,350.00
2023-07-27T03:24:11.339Z,351.00
2023-07-27T03:25:11.263Z,352.00
2023-07-27T03:26:11.585Z,354.00
2023-07-27T03:27:11.270Z,354.00
2023-07-27T03:28:11.277Z,353.00
2023-07-27T03:29:11.294Z,352.00
2023-07-27T03:30:11.290Z,353.00
2023-07-27T03:31:11.296Z,353.00
2023-07-27T03:32:11.295Z,351.00
2023-07-27T03:33:11.285Z,352.00
2023-07-27T03:34:11.295Z,353.00
2023-07-27T03:35:11.269Z,352.00
2023-07-27T03:36:11.340Z,350.00
2023-07-27T03:37:11.267Z,350.00
2023-07-27T03:38:11.290Z,349.00
2023-07-27T03:39:11.294Z,348.00
2023-07-27T03:40:11.303Z,350.00
2023-07-27T03:41:11.344Z,352.00
2023-07-27T03:42:11.303Z,349.00
2023-07-27T03:43:11.299Z,351.00
2023-07-27T03:44:11.302Z,352.00
2023-07-27T03:45:11.285Z,354.00
2023-07-27T03:46:11.317Z,355.00
2023-07-27T03:47:11.293Z,356.00
2023-07-27T03:48:11.338Z,356.00
2023-07-27T03:49:11.283Z,356.00
2023-07-27T03:50:11.306Z,356.00
2023-07-27T03:51:11.327Z,356.00
2023-07-27T03:52:11.310Z,356.00
2023-07-27T03:53:11.286Z,356.00
2023-07-27T03:54:11.312Z,353.00
2023-07-27T03:55:11.290Z,353.00
2023-07-27T03:56:11.297Z,353.00
2023-07-27T03:57:11.396Z,353.00
2023-07-27T03:58:11.314Z,352.00
2023-07-27T03:59:11.313Z,351.00
2023-07-27T04:00:11.324Z,350.00
2023-07-27T04:01:11.338Z,346.00
2023-07-27T04:02:11.390Z,346.00
2023-07-27T04:03:11.364Z,346.00
2023-07-27T04:04:11.310Z,347.00
2023-07-27T04:05:11.327Z,346.00
2023-07-27T04:06:11.318Z,347.00
2023-07-27T04:07:11.344Z,347.00
2023-07-27T04:08:11.327Z,346.00
2023-07-27T04:09:11.467Z,346.00
2023-07-27T04:10:11.366Z,344.00
2023-07-27T04:11:11.341Z,346.00
2023-07-27T04:12:11.344Z,347.00
2023-07-27T04:13:11.331Z,349.00
2023-07-27T04:14:11.351Z,345.00
2023-07-27T04:15:11.365Z,344.00
2023-07-27T04:16:11.385Z,343.00
2023-07-27T04:17:11.359Z,342.00
2023-07-27T04:18:11.521Z,342.00
2023-07-27T04:19:11.366Z,341.00
2023-07-27T04:20:11.360Z,339.00
2023-07-27T04:21:11.347Z,335.00
2023-07-27T04:22:11.372Z,334.00
2023-07-27T04:23:11.373Z,335.00
2023-07-27T04:24:11.379Z,333.00
2023-07-27T04:25:11.381Z,332.00
2023-07-27T04:26:11.397Z,333.00
2023-07-27T04:27:11.390Z,333.00
2023-07-27T04:28:11.381Z,335.00
2023-07-27T04:29:11.372Z,335.00
2023-07-27T04:30:11.371Z,337.00
2023-07-27T04:31:11.413Z,338.00
2023-07-27T04:32:11.421Z,339.00
2023-07-27T04:33:11.411Z,339.00
2023-07-27T04:34:11.399Z,339.00
2023-07-27T04:35:11.420Z,340.00
2023-07-27T04:36:11.408Z,340.00
2023-07-27T04:37:11.438Z,343.00
2023-07-27T04:38:11.468Z,344.00
2023-07-27T04:39:12.061Z,343.00
2023-07-27T04:40:11.438Z,343.00
2023-07-27T04:41:11.427Z,343.00
2023-07-27T04:42:11.448Z,342.00
2023-07-27T04:43:11.516Z,345.00
2023-07-27T04:44:11.436Z,344.00
2023-07-27T04:45:11.456Z,345.00
2023-07-27T04:46:11.455Z,343.00
2023-07-27T04:47:11.495Z,345.00
2023-07-27T04:48:11.442Z,345.00
2023-07-27T04:49:11.473Z,345.00
2023-07-27T04:50:11.463Z,345.00
2023-07-27T04:51:11.462Z,344.00
2023-07-27T04:52:11.572Z,346.00
2023-07-27T04:53:11.461Z,348.00
2023-07-27T04:54:11.501Z,349.00
2023-07-27T04:55:11.474Z,350.00
2023-07-27T04:56:11.461Z,349.00
2023-07-27T04:57:11.449Z,349.00
2023-07-27T04:58:11.477Z,352.00
2023-07-27T04:59:11.447Z,355.00
2023-07-27T05:00:14.089Z,356.00
2023-07-27T05:01:11.575Z,355.00
2023-07-27T05:02:11.435Z,357.00
2023-07-27T05:03:11.457Z,357.00
2023-07-27T05:04:11.441Z,358.00
2023-07-27T05:05:11.457Z,355.00
2023-07-27T05:06:11.459Z,356.00
2023-07-27T05:07:11.408Z,354.00
2023-07-27T05:08:11.407Z,352.00
2023-07-27T05:10:11.397Z,353.00
2023-07-27T05:11:11.432Z,353.00
2023-07-27T05:12:11.405Z,354.00
2023-07-27T05:13:11.408Z,355.00
2023-07-27T05:14:11.374Z,357.00
2023-07-27T05:15:11.386Z,357.00
2023-07-27T05:16:11.389Z,357.00
2023-07-27T05:17:11.380Z,360.00
2023-07-27T05:18:11.371Z,364.00
2023-07-27T05:19:11.407Z,365.00
2023-07-27T05:20:11.355Z,366.00
2023-07-27T05:21:12.787Z,366.00
2023-07-27T05:22:11.340Z,365.00
2023-07-27T05:23:11.345Z,366.00
2023-07-27T05:24:11.328Z,370.00
2023-07-27T05:25:11.322Z,370.00
2023-07-27T05:26:11.318Z,369.00
2023-07-27T05:27:11.357Z,367.00
2023-07-27T05:28:11.284Z,366.00
2023-07-27T05:29:11.387Z,366.00
2023-07-27T05:30:11.284Z,364.00
2023-07-27T05:31:11.280Z,363.00
2023-07-27T05:32:11.245Z,365.00
2023-07-27T05:33:11.238Z,366.00
2023-07-27T05:34:11.229Z,365.00
2023-07-27T05:35:11.211Z,364.00
2023-07-27T05:36:11.207Z,362.00
2023-07-27T05:37:12.435Z,365.00
2023-07-27T05:38:11.203Z,366.00
2023-07-27T05:39:11.186Z,366.00
2023-07-27T05:40:11.226Z,368.00
2023-07-27T05:41:11.182Z,368.00
2023-07-27T05:42:11.175Z,368.00
2023-07-27T05:43:11.165Z,363.00
2023-07-27T05:44:11.182Z,361.00
2023-07-27T05:45:11.160Z,361.00
2023-07-27T05:46:11.205Z,363.00
2023-07-27T05:47:11.134Z,365.00
2023-07-27T05:48:11.174Z,365.00
2023-07-27T05:49:12.027Z,365.00
2023-07-27T05:50:11.138Z,362.00
2023-07-27T05:51:11.119Z,361.00
2023-07-27T05:52:11.111Z,360.00
2023-07-27T05:53:11.108Z,362.00
2023-07-27T05:54:11.120Z,361.00
2023-07-27T05:55:11.076Z,361.00
2023-07-27T05:56:12.738Z,360.00
2023-07-27T05:57:11.072Z,359.00
2023-07-27T05:58:23.861Z,361.00
2023-07-27T05:59:12.078Z,362.00
2023-07-27T06:00:11.075Z,362.00
2023-07-27T06:01:11.061Z,365.00
2023-07-27T06:02:11.043Z,366.00
2023-07-27T06:03:11.108Z,368.00
2023-07-27T06:04:11.095Z,368.00
2023-07-27T06:05:11.020Z,369.00
2023-07-27T06:06:11.012Z,368.00
2023-07-27T06:07:11.001Z,368.00
2023-07-27T06:08:11.034Z,365.00
2023-07-27T06:09:11.001Z,362.00
2023-07-27T06:10:11.113Z,361.00
2023-07-27T06:11:10.971Z,362.00
2023-07-27T06:12:10.968Z,362.00
2023-07-27T06:13:10.952Z,360.00
2023-07-27T06:14:10.976Z,362.00
2023-07-27T06:15:11.016Z,362.00
2023-07-27T06:16:10.956Z,363.00
2023-07-27T06:17:10.936Z,364.00
2023-07-27T06:18:10.985Z,363.00
2023-07-27T06:19:10.919Z,362.00
2023-07-27T06:20:10.942Z,362.00
2023-07-27T06:21:10.929Z,365.00
2023-07-27T06:22:10.916Z,364.00
2023-07-27T06:23:10.884Z,366.00
2023-07-27T06:24:10.914Z,367.00
2023-07-27T06:25:10.871Z,365.00
2023-07-27T06:26:10.857Z,365.00
2023-07-27T06:27:10.861Z,366.00
2023-07-27T06:28:10.833Z,365.00
2023-07-27T06:29:10.847Z,366.00
2023-07-27T06:30:10.889Z,366.00
2023-07-27T06:31:10.856Z,366.00
2023-07-27T06:32:10.908Z,366.00
2023-07-27T06:33:10.861Z,365.00
2023-07-27T06:34:10.808Z,365.00
2023-07-27T06:35:10.859Z,366.00
2023-07-27T06:36:10.884Z,367.00
2023-07-27T06:37:11.000Z,365.00
2023-07-27T06:38:11.016Z,361.00
2023-07-27T06:39:11.066Z,362.00
2023-07-27T06:40:11.138Z,364.00
2023-07-27T06:41:11.180Z,361.00
2023-07-27T06:42:11.247Z,360.00
2023-07-27T06:43:11.311Z,359.00
2023-07-27T06:44:11.383Z,359.00
2023-07-27T06:45:11.427Z,360.00
2023-07-27T06:46:11.536Z,358.00
2023-07-27T06:47:11.706Z,359.00
2023-07-27T06:48:11.831Z,357.00
2023-07-27T06:49:11.741Z,354.00
2023-07-27T06:50:11.764Z,352.00
2023-07-27T06:51:11.799Z,353.00
2023-07-27T06:52:11.922Z,353.00
2023-07-27T06:53:11.917Z,352.00
2023-07-27T06:54:11.984Z,353.00
2023-07-27T06:55:12.028Z,352.00
2023-07-27T06:56:12.073Z,354.00
2023-07-27T06:57:12.142Z,356.00
2023-07-27T06:58:12.177Z,355.00
2023-07-27T06:59:12.254Z,357.00
2023-07-27T07:00:12.282Z,356.00
2023-07-27T07:01:12.425Z,354.00
2023-07-27T07:02:12.415Z,352.00
2023-07-27T07:03:12.650Z,353.00
2023-07-27T07:04:12.529Z,352.00
2023-07-27T07:05:12.630Z,351.00
2023-07-27T07:06:12.622Z,350.00
2023-07-27T07:07:12.687Z,351.00
2023-07-27T07:08:12.741Z,351.00
2023-07-27T07:09:12.839Z,350.00
2023-07-27T07:10:12.872Z,350.00
2023-07-27T07:11:12.914Z,351.00
2023-07-27T07:12:13.003Z,352.00
2023-07-27T07:13:13.013Z,349.00
2023-07-27T07:14:13.151Z,349.00
2023-07-27T07:15:13.190Z,349.00
2023-07-27T07:16:13.221Z,350.00
2023-07-27T07:17:13.277Z,347.00
2023-07-27T07:18:13.304Z,348.00
2023-07-27T07:19:13.327Z,351.00
2023-07-27T07:20:13.400Z,351.00
2023-07-27T07:21:13.410Z,352.00
2023-07-27T07:22:13.476Z,350.00
2023-07-27T07:23:13.510Z,349.00
2023-07-27T07:24:13.505Z,351.00
2023-07-27T07:25:13.574Z,349.00
2023-07-27T07:26:13.566Z,346.00
2023-07-27T07:27:13.557Z,343.00
2023-07-27T07:28:13.613Z,345.00
2023-07-27T07:29:13.677Z,347.00
2023-07-27T07:30:13.658Z,345.00
2023-07-27T07:31:13.687Z,346.00
2023-07-27T07:32:13.678Z,348.00
2023-07-27T07:33:13.697Z,347.00
2023-07-27T07:34:13.771Z,344.00
2023-07-27T07:35:13.794Z,345.00
2023-07-27T07:36:13.794Z,346.00
2023-07-27T07:37:13.862Z,347.00
2023-07-27T07:38:13.908Z,347.00
2023-07-27T07:39:13.964Z,348.00
2023-07-27T07:40:13.982Z,349.00
2023-07-27T07:41:14.065Z,348.00
2023-07-27T07:42:14.117Z,348.00
2023-07-27T07:43:14.188Z,348.00
2023-07-27T07:44:14.242Z,347.00
2023-07-27T07:45:14.360Z,345.00
2023-07-27T07:46:14.418Z,343.00
2023-07-27T07:47:14.472Z,341.00
2023-07-27T07:48:14.471Z,342.00
2023-07-27T07:49:14.549Z,340.00
2023-07-27T07:50:14.611Z,340.00
2023-07-27T07:51:14.687Z,339.00
2023-07-27T07:52:14.822Z,340.00
2023-07-27T07:53:22.537Z,341.00
2023-07-27T07:54:15.794Z,343.00
2023-07-27T07:55:14.785Z,346.00
2023-07-27T07:56:14.861Z,346.00
2023-07-27T07:57:14.785Z,345.00
2023-07-27T07:58:14.747Z,345.00
2023-07-27T07:59:14.796Z,345.00
2023-07-27T08:00:14.854Z,345.00
2023-07-27T08:01:14.780Z,346.00
2023-07-27T08:02:14.758Z,346.00
2023-07-27T08:03:14.904Z,346.00
2023-07-27T08:04:14.876Z,344.00
2023-07-27T08:05:14.946Z,341.00
2023-07-27T08:06:15.007Z,341.00
2023-07-27T08:07:15.046Z,340.00
2023-07-27T08:08:15.091Z,338.00
2023-07-27T08:09:15.128Z,338.00
2023-07-27T08:10:15.177Z,339.00
2023-07-27T08:11:15.156Z,339.00
2023-07-27T08:12:15.206Z,337.00
2023-07-27T08:13:15.262Z,334.00
2023-07-27T08:14:15.284Z,336.00
2023-07-27T08:15:15.333Z,338.00
2023-07-27T08:16:15.394Z,334.00
2023-07-27T08:17:15.389Z,333.00
2023-07-27T08:18:15.445Z,333.00
2023-07-27T08:19:15.520Z,331.00
2023-07-27T08:20:15.653Z,334.00
2023-07-27T08:21:15.627Z,333.00
2023-07-27T08:22:15.726Z,331.00
2023-07-27T08:23:15.745Z,334.00
2023-07-27T08:24:15.818Z,333.00
2023-07-27T08:25:22.108Z,332.00
2023-07-27T08:26:16.851Z,332.00
2023-07-27T08:27:15.824Z,330.00
2023-07-27T08:28:15.835Z,328.00
2023-07-27T08:29:15.809Z,329.00
2023-07-27T08:30:15.811Z,325.00
2023-07-27T08:31:15.904Z,326.00
2023-07-27T08:32:15.830Z,325.00
2023-07-27T08:33:15.819Z,325.00
2023-07-27T08:34:15.858Z,323.00
2023-07-27T08:35:15.952Z,322.00
2023-07-27T08:36:16.013Z,324.00
2023-07-27T08:37:16.001Z,324.00
2023-07-27T08:38:16.235Z,327.00
2023-07-27T08:39:16.080Z,325.00
2023-07-27T08:40:16.174Z,326.00
2023-07-27T08:41:16.135Z,325.00
2023-07-27T08:42:16.199Z,323.00
2023-07-27T08:43:16.245Z,323.00
2023-07-27T08:44:16.313Z,324.00
2023-07-27T08:45:16.366Z,324.00
2023-07-27T08:46:16.496Z,325.00
2023-07-27T08:47:16.489Z,327.00
2023-07-27T08:48:16.534Z,328.00
2023-07-27T08:49:16.590Z,330.00
2023-07-27T08:50:16.596Z,331.00
2023-07-27T08:51:16.653Z,331.00
2023-07-27T08:52:16.596Z,330.00
2023-07-27T08:53:16.606Z,330.00
2023-07-27T08:54:16.638Z,330.00
2023-07-27T08:55:16.606Z,328.00
2023-07-27T08:56:16.639Z,328.00
2023-07-27T08:57:16.629Z,328.00
2023-07-27T08:58:16.627Z,330.00
2023-07-27T08:59:16.628Z,330.00
2023-07-27T09:00:16.638Z,328.00
2023-07-27T09:01:16.620Z,327.00
2023-07-27T09:02:16.631Z,328.00
2023-07-27T09:03:16.680Z,328.00
2023-07-27T09:04:16.619Z,328.00
2023-07-27T09:05:16.673Z,329.00
2023-07-27T09:06:16.625Z,332.00
2023-07-27T09:07:16.642Z,331.00
2023-07-27T09:08:16.630Z,332.00
2023-07-27T09:09:16.640Z,331.00
2023-07-27T09:10:16.670Z,330.00
2023-07-27T09:11:16.669Z,329.00
2023-07-27T09:12:16.709Z,327.00
2023-07-27T09:13:16.713Z,327.00
2023-07-27T09:14:16.684Z,325.00
2023-07-27T09:15:16.717Z,325.00
2023-07-27T09:16:16.728Z,326.00
2023-07-27T09:17:16.720Z,325.00
2023-07-27T09:18:16.700Z,327.00
2023-07-27T09:19:16.734Z,328.00
2023-07-27T09:20:16.726Z,327.00
2023-07-27T09:21:16.789Z,327.00
2023-07-27T09:22:16.732Z,326.00
2023-07-27T09:23:16.735Z,325.00
2023-07-27T09:24:16.774Z,324.00
2023-07-27T09:25:16.768Z,325.00
2023-07-27T09:26:16.750Z,326.00
2023-07-27T09:27:16.773Z,328.00
2023-07-27T09:28:16.775Z,327.00
2023-07-27T09:29:16.772Z,324.00
2023-07-27T09:30:16.788Z,323.00
2023-07-27T09:31:16.847Z,322.00
2023-07-27T09:32:16.813Z,323.00
2023-07-27T09:33:16.832Z,322.00
2023-07-27T09:34:16.813Z,323.00
2023-07-27T09:35:16.831Z,324.00
2023-07-27T09:36:16.837Z,325.00
2023-07-27T09:37:16.855Z,326.00
2023-07-27T09:38:16.872Z,329.00
2023-07-27T09:39:16.869Z,328.00
2023-07-27T09:40:16.890Z,327.00
2023-07-27T09:41:16.941Z,325.00
2023-07-27T09:42:16.979Z,325.00
2023-07-27T09:43:16.911Z,325.00
2023-07-27T09:44:16.925Z,327.00
2023-07-27T09:45:16.918Z,325.00
2023-07-27T09:46:16.977Z,324.00
2023-07-27T09:47:16.951Z,322.00
2023-07-27T09:48:16.908Z,319.00
2023-07-27T09:49:16.935Z,316.00
2023-07-27T09:50:16.932Z,316.00
2023-07-27T09:51:16.956Z,315.00
2023-07-27T09:52:16.890Z,315.00
2023-07-27T09:53:16.935Z,313.00
2023-07-27T09:54:16.908Z,312.00
2023-07-27T09:55:16.923Z,314.00
2023-07-27T09:56:16.894Z,315.00
2023-07-27T09:57:16.902Z,316.00
2023-07-27T09:58:16.893Z,316.00
2023-07-27T09:59:16.916Z,317.00
2023-07-27T10:00:16.950Z,316.00
2023-07-27T10:01:16.924Z,316.00
2023-07-27T10:02:21.173Z,318.00
2023-07-27T10:03:17.959Z,318.00
2023-07-27T10:04:16.889Z,318.00
2023-07-27T10:05:16.914Z,317.00
2023-07-27T10:06:16.884Z,315.00
2023-07-27T10:07:16.889Z,316.00
2023-07-27T10:08:16.852Z,318.00
2023-07-27T10:09:16.856Z,319.00
2023-07-27T10:10:16.856Z,319.00
2023-07-27T10:11:16.833Z,317.00
2023-07-27T10:12:16.845Z,319.00
2023-07-27T10:13:16.807Z,317.00
2023-07-27T10:14:16.813Z,316.00
2023-07-27T10:15:16.820Z,312.00
2023-07-27T10:16:16.815Z,311.00
2023-07-27T10:17:16.851Z,309.00
2023-07-27T10:18:16.824Z,310.00
2023-07-27T10:19:16.773Z,311.00
2023-07-27T10:20:16.831Z,313.00
2023-07-27T10:21:16.763Z,314.00
2023-07-27T10:22:17.195Z,315.00
2023-07-27T10:23:16.753Z,312.00
2023-07-27T10:24:16.752Z,312.00
2023-07-27T10:25:16.726Z,311.00
2023-07-27T10:26:16.741Z,308.00
2023-07-27T10:27:16.734Z,309.00
2023-07-27T10:28:16.726Z,309.00
2023-07-27T10:29:16.712Z,312.00
2023-07-27T10:30:16.805Z,312.00
2023-07-27T10:31:16.754Z,311.00
2023-07-27T10:32:16.719Z,311.00
2023-07-27T10:33:16.668Z,306.00
2023-07-27T10:34:25.443Z,306.00
2023-07-27T10:35:17.694Z,306.00
2023-07-27T10:36:16.675Z,306.00
2023-07-27T10:37:16.644Z,307.00
2023-07-27T10:38:16.665Z,310.00
2023-07-27T10:39:16.650Z,312.00
2023-07-27T10:40:16.624Z,310.00
2023-07-27T10:41:16.608Z,309.00
2023-07-27T10:42:16.684Z,309.00
2023-07-27T10:43:21.558Z,308.00
2023-07-27T10:44:17.615Z,306.00
2023-07-27T10:45:16.590Z,307.00
2023-07-27T10:46:16.605Z,310.00
2023-07-27T10:47:16.585Z,309.00
2023-07-27T10:48:16.593Z,310.00
2023-07-27T10:49:16.557Z,309.00
2023-07-27T10:50:17.577Z,309.00
2023-07-27T10:51:16.569Z,309.00
2023-07-27T10:52:16.568Z,307.00
2023-07-27T10:53:16.538Z,311.00
2023-07-27T10:54:16.578Z,311.00
2023-07-27T10:55:16.516Z,312.00
2023-07-27T10:56:16.541Z,312.00
2023-07-27T10:57:16.516Z,311.00
2023-07-27T10:58:16.500Z,315.00
2023-07-27T10:59:16.492Z,314.00
2023-07-27T11:00:16.512Z,315.00
2023-07-27T11:01:16.548Z,314.00
2023-07-27T11:02:16.519Z,311.00
2023-07-27T11:03:16.629Z,311.00
2023-07-27T11:04:16.477Z,312.00
2023-07-27T11:05:16.457Z,312.00
2023-07-27T11:06:16.445Z,311.00
2023-07-27T11:07:16.439Z,311.00
2023-07-27T11:08:16.433Z,314.00
2023-07-27T11:09:16.447Z,315.00
2023-07-27T11:10:16.421Z,311.00
2023-07-27T11:11:16.413Z,311.00
2023-07-27T11:12:16.455Z,313.00
2023-07-27T11:13:16.399Z,317.00
2023-07-27T11:14:16.377Z,315.00
2023-07-27T11:15:16.389Z,312.00
2023-07-27T11:16:17.718Z,311.00
2023-07-27T11:17:16.428Z,308.00
2023-07-27T11:18:16.439Z,311.00
2023-07-27T11:19:16.370Z,313.00
2023-07-27T11:20:16.456Z,311.00
2023-07-27T11:21:16.348Z,311.00
2023-07-27T11:22:16.364Z,312.00
2023-07-27T11:23:16.381Z,312.00
2023-07-27T11:24:16.344Z,311.00
2023-07-27T11:25:16.322Z,314.00
2023-07-27T11:26:16.337Z,311.00
2023-07-27T11:27:16.296Z,308.00
2023-07-27T11:28:17.205Z,307.00
2023-07-27T11:29:16.304Z,310.00
2023-07-27T11:30:16.290Z,312.00
2023-07-27T11:31:16.351Z,311.00
2023-07-27T11:32:16.269Z,309.00
2023-07-27T11:33:16.697Z,311.00
2023-07-27T11:34:16.275Z,311.00
2023-07-27T11:35:16.296Z,311.00
2023-07-27T11:36:16.277Z,310.00
2023-07-27T11:37:16.242Z,310.00
2023-07-27T11:38:16.314Z,309.00
2023-07-27T11:39:16.240Z,310.00
2023-07-27T11:40:16.243Z,311.00
2023-07-27T11:41:41.900Z,311.00
2023-07-27T11:42:17.218Z,313.00
2023-07-27T11:43:16.239Z,312.00
2023-07-27T11:44:16.255Z,311.00
2023-07-27T11:45:16.183Z,311.00
2023-07-27T11:46:16.341Z,311.00
2023-07-27T11:47:16.225Z,312.00
2023-07-27T11:48:16.282Z,313.00
2023-07-27T11:49:16.289Z,311.00
2023-07-27T11:50:16.168Z,311.00
2023-07-27T11:51:16.245Z,312.00
2023-07-27T11:52:16.273Z,312.00
2023-07-27T11:53:26.152Z,311.00
2023-07-27T11:54:17.105Z,311.00
2023-07-27T11:55:16.150Z,312.00
2023-07-27T11:56:16.194Z,315.00
2023-07-27T11:57:16.299Z,310.00
2023-07-27T11:58:16.595Z,309.00
2023-07-27T11:59:16.283Z,307.00
2023-07-27T12:00:16.068Z,306.00
2023-07-27T12:01:16.118Z,308.00
2023-07-27T12:02:16.330Z,309.00
2023-07-27T12:03:23.082Z,310.00
2023-07-27T12:04:17.110Z,311.00
2023-07-27T12:05:16.056Z,310.00
2023-07-27T12:06:16.214Z,311.00
2023-07-27T12:08:44.607Z,314.00
2023-07-27T12:09:16.998Z,313.00
2023-07-27T12:10:15.998Z,313.00
2023-07-27T12:12:16.195Z,312.00
2023-07-27T12:14:16.025Z,308.00
2023-07-27T12:15:15.977Z,305.00
2023-07-27T12:18:15.993Z,308.00
2023-07-27T12:20:25.719Z,311.00
2023-07-27T12:27:17.326Z,309.00
2023-07-27T12:32:11.521Z,308.00
2023-07-27T12:32:17.061Z,310.00
2023-07-27T12:33:16.019Z,309.00
2023-07-27T12:34:18.594Z,310.00
2023-07-27T12:36:15.947Z,312.00
2023-07-27T12:39:15.787Z,307.00
2023-07-27T12:40:15.997Z,307.00
2023-07-27T12:41:15.770Z,309.00
2023-07-27T12:43:15.766Z,308.00
2023-07-27T12:44:15.756Z,309.00
2023-07-27T12:45:15.743Z,307.00
2023-07-27T12:46:15.735Z,308.00
2023-07-27T12:47:15.737Z,306.00
2023-07-27T12:48:15.723Z,307.00
2023-07-27T12:49:15.757Z,309.00
2023-07-27T12:50:15.687Z,308.00